Terminal Aerodrome Forecast
Issued by NWS

Home | Current Version | Previous Version | Text Only | Print | Product List | Glossary On
Versions: 1 2 3 4 5 6 7 8 9 10 11 12 13 14 15 16 17 18 19 20 21 22 23 24 25 26 27
588
FTUS42 KJAX 222341
TAFCRG
TAF
KCRG 222341Z 2300/2324 09008KT P6SM -SHRA SCT010 BKN040 OVC080
      TEMPO 2300/2304 3SM +SHRA BR BKN025 OVC040
     FM230400 06008KT P6SM VCSH SCT008 BKN015 OVC030
     FM231200 05012G25KT P6SM VCSH SCT010 BKN020 OVC030
     FM231500 06017G30KT P6SM VCSH SCT020 BKN030 OVC150=

USA.gov is the U.S. government's official web portal to all federal, state and local government web resources and services.